UAL223 KGPT-KXNA
Flight info
| Callsign | UAL223 |
|---|---|
| Flight time | 1h 28m |
| Altitude | 32000 |
| Route | STENN V552 PCU V555 MCB MEM RZC |
| Aircraft | E75L/M-SDE3GILORVW/S |
Departure
| Time | 2026-05-07 14:32 |
|---|---|
| Airport | Gulfport Biloxi International Airport (KGPT) |
Arrival
| Time | 2026-05-07 16:01 |
|---|---|
| Airport | Northwest Arkansas National Airport (KXNA) |
| Time | Latitude | Longitude | Altitude | Speed | Heading |
|---|---|---|---|---|---|
| 2026-05-07 14:17 | 30.41270 | -89.07335 | 34 ft | 0 kts | 44° |
| 2026-05-07 14:22 | 30.41265 | -89.07341 | 34 ft | 3 kts | 44° |
| 2026-05-07 14:23 | 30.41252 | -89.07355 | 34 ft | 3 kts | 44° |
| 2026-05-07 14:23 | 30.41239 | -89.07369 | 34 ft | 2 kts | 54° |
| 2026-05-07 14:23 | 30.41238 | -89.07387 | 34 ft | 2 kts | 130° |
| 2026-05-07 14:23 | 30.41239 | -89.07388 | 34 ft | 0 kts | 134° |
| 2026-05-07 14:26 | 30.41230 | -89.07378 | 34 ft | 3 kts | 138° |
| 2026-05-07 14:26 | 30.41214 | -89.07362 | 34 ft | 3 kts | 141° |
| 2026-05-07 14:26 | 30.41193 | -89.07346 | 34 ft | 5 kts | 154° |
| 2026-05-07 14:26 | 30.41150 | -89.07348 | 34 ft | 8 kts | 214° |
| 2026-05-07 14:27 | 30.41077 | -89.07416 | 34 ft | 9 kts | 200° |
| 2026-05-07 14:27 | 30.41024 | -89.07391 | 34 ft | 12 kts | 137° |
| 2026-05-07 14:27 | 30.40952 | -89.07304 | 34 ft | 16 kts | 131° |
| 2026-05-07 14:27 | 30.40871 | -89.07205 | 34 ft | 17 kts | 130° |
| 2026-05-07 14:28 | 30.40783 | -89.07116 | 34 ft | 17 kts | 136° |
| 2026-05-07 14:28 | 30.40693 | -89.07011 | 34 ft | 20 kts | 134° |
| 2026-05-07 14:28 | 30.40590 | -89.06892 | 34 ft | 22 kts | 134° |
| 2026-05-07 14:28 | 30.40482 | -89.06765 | 34 ft | 21 kts | 135° |
| 2026-05-07 14:29 | 30.40388 | -89.06655 | 34 ft | 18 kts | 135° |
| 2026-05-07 14:29 | 30.40300 | -89.06571 | 34 ft | 15 kts | 142° |
| 2026-05-07 14:29 | 30.40223 | -89.06502 | 34 ft | 13 kts | 142° |
| 2026-05-07 14:29 | 30.40159 | -89.06441 | 34 ft | 12 kts | 136° |
| 2026-05-07 14:30 | 30.40074 | -89.06342 | 34 ft | 21 kts | 135° |
| 2026-05-07 14:30 | 30.39951 | -89.06200 | 33 ft | 24 kts | 135° |
| 2026-05-07 14:30 | 30.39859 | -89.06133 | 33 ft | 9 kts | 193° |
| 2026-05-07 14:30 | 30.39834 | -89.06159 | 33 ft | 4 kts | 225° |
| 2026-05-07 14:31 | 30.39807 | -89.06188 | 33 ft | 8 kts | 221° |
| 2026-05-07 14:31 | 30.39779 | -89.06242 | 33 ft | 5 kts | 287° |
| 2026-05-07 14:31 | 30.39801 | -89.06271 | 33 ft | 7 kts | 313° |
| 2026-05-07 14:31 | 30.39961 | -89.06460 | 34 ft | 73 kts | 316° |
| 2026-05-07 14:32 | 30.40535 | -89.07117 | 37 ft | 153 kts | 315° |
| 2026-05-07 14:32 | 30.41367 | -89.08033 | 720 ft | 178 kts | 316° |
| 2026-05-07 14:32 | 30.42281 | -89.09112 | 1085 ft | 201 kts | 309° |
| 2026-05-07 14:32 | 30.43125 | -89.10557 | 1641 ft | 230 kts | 297° |
| 2026-05-07 14:33 | 30.43810 | -89.12246 | 2149 ft | 233 kts | 290° |
| 2026-05-07 14:33 | 30.44464 | -89.14011 | 2642 ft | 240 kts | 292° |
| 2026-05-07 14:33 | 30.45201 | -89.15732 | 3138 ft | 240 kts | 296° |
| 2026-05-07 14:33 | 30.46050 | -89.17451 | 3643 ft | 247 kts | 297° |
| 2026-05-07 14:34 | 30.46929 | -89.19130 | 4134 ft | 238 kts | 297° |
| 2026-05-07 14:34 | 30.47775 | -89.20770 | 4633 ft | 242 kts | 296° |
| 2026-05-07 14:34 | 30.48609 | -89.22472 | 5118 ft | 243 kts | 295° |
| 2026-05-07 14:34 | 30.49415 | -89.24180 | 5722 ft | 243 kts | 295° |
| 2026-05-07 14:35 | 30.50232 | -89.25912 | 6364 ft | 246 kts | 295° |
| 2026-05-07 14:35 | 30.51063 | -89.27646 | 6980 ft | 248 kts | 296° |
| 2026-05-07 14:35 | 30.51912 | -89.29396 | 7619 ft | 248 kts | 296° |
| 2026-05-07 14:35 | 30.52764 | -89.31152 | 8269 ft | 250 kts | 296° |
| 2026-05-07 14:36 | 30.53616 | -89.32912 | 8912 ft | 250 kts | 295° |
| 2026-05-07 14:36 | 30.54458 | -89.34662 | 9564 ft | 253 kts | 295° |
| 2026-05-07 14:36 | 30.55318 | -89.36455 | 10204 ft | 256 kts | 295° |
| 2026-05-07 14:36 | 30.56204 | -89.38308 | 10830 ft | 273 kts | 295° |
| 2026-05-07 14:37 | 30.57153 | -89.40297 | 11474 ft | 290 kts | 295° |
| 2026-05-07 14:37 | 30.59141 | -89.44669 | 12112 ft | 314 kts | 286° |
| 2026-05-07 14:37 | 30.59367 | -89.47148 | 12095 ft | 312 kts | 264° |
| 2026-05-07 14:38 | 30.59062 | -89.49654 | 11953 ft | 311 kts | 263° |
| 2026-05-07 14:38 | 30.58824 | -89.52139 | 11985 ft | 311 kts | 264° |
| 2026-05-07 14:38 | 30.58583 | -89.54632 | 12051 ft | 313 kts | 263° |
| 2026-05-07 14:38 | 30.58293 | -89.57102 | 12021 ft | 311 kts | 262° |
| 2026-05-07 14:39 | 30.57951 | -89.59586 | 12398 ft | 317 kts | 262° |
| 2026-05-07 14:39 | 30.57595 | -89.62149 | 12771 ft | 325 kts | 262° |
| 2026-05-07 14:39 | 30.57247 | -89.64752 | 13172 ft | 327 kts | 262° |
| 2026-05-07 14:39 | 30.56909 | -89.67379 | 13563 ft | 330 kts | 262° |
| 2026-05-07 14:40 | 30.56716 | -89.70020 | 13949 ft | 331 kts | 275° |
| 2026-05-07 14:40 | 30.57368 | -89.72579 | 14323 ft | 337 kts | 295° |
| 2026-05-07 14:40 | 30.58862 | -89.74727 | 14701 ft | 350 kts | 314° |
| 2026-05-07 14:40 | 30.60872 | -89.76386 | 15082 ft | 357 kts | 319° |
| 2026-05-07 14:41 | 30.62918 | -89.77992 | 15440 ft | 361 kts | 320° |
| 2026-05-07 14:41 | 30.65077 | -89.79579 | 15845 ft | 365 kts | 322° |
| 2026-05-07 14:41 | 30.67251 | -89.81052 | 16244 ft | 369 kts | 323° |
| 2026-05-07 14:41 | 30.69509 | -89.82507 | 16658 ft | 372 kts | 324° |
| 2026-05-07 14:42 | 30.71776 | -89.83971 | 17041 ft | 375 kts | 323° |
| 2026-05-07 14:42 | 30.74025 | -89.85532 | 17441 ft | 377 kts | 321° |
| 2026-05-07 14:42 | 30.76250 | -89.87155 | 17851 ft | 378 kts | 320° |
| 2026-05-07 14:42 | 30.78481 | -89.88792 | 18281 ft | 382 kts | 320° |
| 2026-05-07 14:43 | 30.80729 | -89.90409 | 18636 ft | 385 kts | 321° |
| 2026-05-07 14:43 | 30.83014 | -89.92025 | 18990 ft | 387 kts | 321° |
| 2026-05-07 14:43 | 30.85337 | -89.93636 | 19354 ft | 389 kts | 321° |
| 2026-05-07 14:43 | 30.87660 | -89.95248 | 19729 ft | 390 kts | 321° |
| 2026-05-07 14:44 | 30.89975 | -89.96910 | 20099 ft | 391 kts | 320° |
| 2026-05-07 14:44 | 30.92283 | -89.98588 | 20464 ft | 393 kts | 320° |
| 2026-05-07 14:44 | 30.94616 | -90.00271 | 20815 ft | 395 kts | 320° |
| 2026-05-07 14:44 | 30.96956 | -90.01932 | 21235 ft | 396 kts | 320° |
| 2026-05-07 14:45 | 30.99321 | -90.03602 | 21644 ft | 398 kts | 320° |
| 2026-05-07 14:45 | 31.01667 | -90.05263 | 22027 ft | 400 kts | 320° |
| 2026-05-07 14:45 | 31.04055 | -90.06961 | 22429 ft | 403 kts | 320° |
| 2026-05-07 14:45 | 31.06448 | -90.08667 | 22821 ft | 405 kts | 320° |
| 2026-05-07 14:46 | 31.08857 | -90.10386 | 23263 ft | 407 kts | 320° |
| 2026-05-07 14:46 | 31.11282 | -90.12116 | 23685 ft | 409 kts | 320° |
| 2026-05-07 14:46 | 31.13708 | -90.13845 | 24036 ft | 411 kts | 320° |
| 2026-05-07 14:46 | 31.16158 | -90.15595 | 24398 ft | 414 kts | 320° |
| 2026-05-07 14:47 | 31.18627 | -90.17362 | 24746 ft | 417 kts | 320° |
| 2026-05-07 14:47 | 31.21100 | -90.19128 | 25112 ft | 420 kts | 320° |
| 2026-05-07 14:47 | 31.23612 | -90.20924 | 25494 ft | 422 kts | 320° |
| 2026-05-07 14:47 | 31.26129 | -90.22716 | 25896 ft | 424 kts | 320° |
| 2026-05-07 14:48 | 31.28642 | -90.24459 | 26268 ft | 431 kts | 323° |
| 2026-05-07 14:48 | 31.31485 | -90.25688 | 26645 ft | 450 kts | 338° |
| 2026-05-07 14:48 | 31.34681 | -90.26064 | 27038 ft | 469 kts | 351° |
| 2026-05-07 14:48 | 31.37974 | -90.25977 | 27435 ft | 474 kts | 354° |
| 2026-05-07 14:49 | 31.41268 | -90.25762 | 27834 ft | 478 kts | 355° |
| 2026-05-07 14:49 | 31.44590 | -90.25476 | 28237 ft | 481 kts | 356° |
| 2026-05-07 14:49 | 31.47902 | -90.25195 | 28638 ft | 482 kts | 355° |
| 2026-05-07 14:49 | 31.51237 | -90.24948 | 29059 ft | 482 kts | 355° |
| 2026-05-07 14:50 | 31.54601 | -90.24731 | 29534 ft | 483 kts | 354° |
| 2026-05-07 14:50 | 31.57956 | -90.24523 | 29968 ft | 483 kts | 354° |
| 2026-05-07 14:50 | 31.61311 | -90.24306 | 30355 ft | 482 kts | 354° |
| 2026-05-07 14:50 | 31.64653 | -90.24070 | 30733 ft | 482 kts | 355° |
| 2026-05-07 14:51 | 31.68009 | -90.23797 | 31111 ft | 482 kts | 355° |
| 2026-05-07 14:51 | 31.71348 | -90.23510 | 31481 ft | 481 kts | 355° |
| 2026-05-07 14:51 | 31.74690 | -90.23227 | 31864 ft | 480 kts | 355° |
| 2026-05-07 14:51 | 31.78028 | -90.22959 | 32042 ft | 486 kts | 354° |
| 2026-05-07 14:52 | 31.84785 | -90.22469 | 32034 ft | 490 kts | 354° |
| 2026-05-07 14:52 | 31.91569 | -90.21963 | 32065 ft | 490 kts | 354° |
| 2026-05-07 14:53 | 31.98378 | -90.21443 | 32066 ft | 490 kts | 354° |
| 2026-05-07 14:53 | 32.05176 | -90.20930 | 32069 ft | 492 kts | 354° |
| 2026-05-07 14:54 | 32.12088 | -90.20423 | 32056 ft | 509 kts | 353° |
| 2026-05-07 14:54 | 32.19292 | -90.19874 | 32071 ft | 518 kts | 354° |
| 2026-05-07 14:55 | 32.26427 | -90.19315 | 32080 ft | 518 kts | 354° |
| 2026-05-07 14:55 | 32.33618 | -90.18772 | 32080 ft | 517 kts | 354° |
| 2026-05-07 14:56 | 32.40783 | -90.18224 | 32059 ft | 510 kts | 353° |
| 2026-05-07 14:56 | 32.47810 | -90.17687 | 32087 ft | 511 kts | 353° |
| 2026-05-07 14:57 | 32.54895 | -90.17153 | 32085 ft | 511 kts | 353° |
| 2026-05-07 14:57 | 32.61994 | -90.16608 | 32106 ft | 511 kts | 353° |
| 2026-05-07 14:58 | 32.69057 | -90.16060 | 32086 ft | 508 kts | 353° |
| 2026-05-07 14:58 | 32.76080 | -90.15525 | 32067 ft | 509 kts | 353° |
| 2026-05-07 14:59 | 32.83136 | -90.14984 | 32056 ft | 509 kts | 353° |
| 2026-05-07 14:59 | 32.90217 | -90.14438 | 32094 ft | 508 kts | 353° |
| 2026-05-07 15:00 | 32.97224 | -90.13892 | 32079 ft | 507 kts | 352° |
| 2026-05-07 15:00 | 33.04202 | -90.13360 | 32070 ft | 506 kts | 352° |
| 2026-05-07 15:01 | 33.11216 | -90.12817 | 32062 ft | 505 kts | 352° |
| 2026-05-07 15:01 | 33.18250 | -90.12271 | 32053 ft | 507 kts | 352° |
| 2026-05-07 15:02 | 33.25276 | -90.11727 | 32089 ft | 507 kts | 352° |
| 2026-05-07 15:02 | 33.32317 | -90.11179 | 32100 ft | 507 kts | 352° |
| 2026-05-07 15:03 | 33.39302 | -90.10636 | 32110 ft | 507 kts | 352° |
| 2026-05-07 15:03 | 33.46338 | -90.10087 | 32109 ft | 507 kts | 352° |
| 2026-05-07 15:04 | 33.53367 | -90.09540 | 32112 ft | 507 kts | 352° |
| 2026-05-07 15:04 | 33.60412 | -90.08989 | 32111 ft | 507 kts | 352° |
| 2026-05-07 15:05 | 33.67397 | -90.08442 | 32106 ft | 507 kts | 352° |
| 2026-05-07 15:05 | 33.74421 | -90.07889 | 32117 ft | 506 kts | 351° |
| 2026-05-07 15:06 | 33.81454 | -90.07338 | 32104 ft | 506 kts | 351° |
| 2026-05-07 15:06 | 33.88509 | -90.06783 | 32095 ft | 507 kts | 351° |
| 2026-05-07 15:07 | 33.95498 | -90.06230 | 32152 ft | 507 kts | 351° |
| 2026-05-07 15:07 | 34.02488 | -90.05676 | 32127 ft | 505 kts | 351° |
| 2026-05-07 15:08 | 34.09513 | -90.05141 | 32101 ft | 503 kts | 349° |
| 2026-05-07 15:08 | 34.16525 | -90.04604 | 32086 ft | 506 kts | 351° |
| 2026-05-07 15:09 | 34.23541 | -90.04012 | 32112 ft | 505 kts | 350° |
| 2026-05-07 15:09 | 34.30477 | -90.03465 | 32105 ft | 505 kts | 349° |
| 2026-05-07 15:10 | 34.37492 | -90.02913 | 32109 ft | 505 kts | 350° |
| 2026-05-07 15:10 | 34.44489 | -90.02353 | 32105 ft | 505 kts | 350° |
| 2026-05-07 15:11 | 34.51508 | -90.01791 | 32072 ft | 503 kts | 349° |
| 2026-05-07 15:11 | 34.58521 | -90.01233 | 32099 ft | 504 kts | 349° |
| 2026-05-07 15:12 | 34.65521 | -90.00671 | 32107 ft | 504 kts | 349° |
| 2026-05-07 15:12 | 34.72466 | -90.00113 | 32113 ft | 505 kts | 349° |
| 2026-05-07 15:13 | 34.79461 | -89.99546 | 32143 ft | 502 kts | 349° |
| 2026-05-07 15:13 | 34.86452 | -89.98990 | 32122 ft | 504 kts | 349° |
| 2026-05-07 15:14 | 34.93453 | -89.98448 | 32135 ft | 498 kts | 345° |
| 2026-05-07 15:14 | 34.96750 | -89.98948 | 32143 ft | 457 kts | 327° |
| 2026-05-07 15:14 | 34.99404 | -90.00554 | 32208 ft | 415 kts | 308° |
| 2026-05-07 15:15 | 35.01229 | -90.03018 | 32214 ft | 373 kts | 289° |
| 2026-05-07 15:15 | 35.02161 | -90.05869 | 32164 ft | 360 kts | 278° |
| 2026-05-07 15:15 | 35.03359 | -90.11769 | 32118 ft | 361 kts | 279° |
| 2026-05-07 15:16 | 35.05192 | -90.17543 | 32123 ft | 368 kts | 284° |
| 2026-05-07 15:16 | 35.07227 | -90.23268 | 32128 ft | 366 kts | 283° |
| 2026-05-07 15:17 | 35.09045 | -90.29014 | 32125 ft | 365 kts | 282° |
| 2026-05-07 15:17 | 35.10868 | -90.34794 | 32128 ft | 365 kts | 282° |
| 2026-05-07 15:18 | 35.12733 | -90.40561 | 32124 ft | 366 kts | 283° |
| 2026-05-07 15:18 | 35.14594 | -90.46358 | 32129 ft | 366 kts | 282° |
| 2026-05-07 15:19 | 35.16440 | -90.52146 | 32135 ft | 366 kts | 282° |
| 2026-05-07 15:19 | 35.18272 | -90.57892 | 32130 ft | 366 kts | 282° |
| 2026-05-07 15:20 | 35.20121 | -90.63696 | 32136 ft | 366 kts | 282° |
| 2026-05-07 15:20 | 35.21961 | -90.69489 | 32137 ft | 366 kts | 282° |
| 2026-05-07 15:21 | 35.23784 | -90.75240 | 32145 ft | 366 kts | 282° |
| 2026-05-07 15:21 | 35.25616 | -90.81035 | 32104 ft | 359 kts | 282° |
| 2026-05-07 15:22 | 35.27414 | -90.86749 | 32137 ft | 362 kts | 282° |
| 2026-05-07 15:22 | 35.29230 | -90.92508 | 32158 ft | 362 kts | 282° |
| 2026-05-07 15:23 | 35.31040 | -90.98253 | 32163 ft | 362 kts | 282° |
| 2026-05-07 15:23 | 35.32829 | -91.03950 | 32163 ft | 362 kts | 282° |
| 2026-05-07 15:24 | 35.34630 | -91.09697 | 32175 ft | 362 kts | 282° |
| 2026-05-07 15:24 | 35.36431 | -91.15453 | 32172 ft | 362 kts | 282° |
| 2026-05-07 15:25 | 35.38202 | -91.21083 | 32111 ft | 337 kts | 282° |
| 2026-05-07 15:25 | 35.39027 | -91.23710 | 32264 ft | 331 kts | 281° |
| 2026-05-07 15:25 | 35.39844 | -91.26356 | 32246 ft | 337 kts | 281° |
| 2026-05-07 15:26 | 35.40683 | -91.29093 | 32120 ft | 338 kts | 281° |
| 2026-05-07 15:26 | 35.41492 | -91.31743 | 31980 ft | 339 kts | 281° |
| 2026-05-07 15:26 | 35.42316 | -91.34454 | 31817 ft | 338 kts | 281° |
| 2026-05-07 15:26 | 35.43139 | -91.37165 | 31655 ft | 338 kts | 281° |
| 2026-05-07 15:27 | 35.43959 | -91.39868 | 31482 ft | 340 kts | 281° |
| 2026-05-07 15:27 | 35.44786 | -91.42587 | 31303 ft | 340 kts | 281° |
| 2026-05-07 15:27 | 35.45613 | -91.45306 | 31096 ft | 341 kts | 281° |
| 2026-05-07 15:27 | 35.46430 | -91.48011 | 30851 ft | 341 kts | 281° |
| 2026-05-07 15:28 | 35.47253 | -91.50749 | 30611 ft | 342 kts | 281° |
| 2026-05-07 15:28 | 35.48082 | -91.53513 | 30376 ft | 343 kts | 281° |
| 2026-05-07 15:28 | 35.48900 | -91.56231 | 30123 ft | 344 kts | 281° |
| 2026-05-07 15:28 | 35.49729 | -91.58985 | 29908 ft | 347 kts | 282° |
| 2026-05-07 15:29 | 35.50564 | -91.61761 | 29637 ft | 349 kts | 282° |
| 2026-05-07 15:29 | 35.51411 | -91.64570 | 29367 ft | 351 kts | 282° |
| 2026-05-07 15:29 | 35.52258 | -91.67384 | 29099 ft | 353 kts | 283° |
| 2026-05-07 15:29 | 35.53105 | -91.70194 | 28833 ft | 353 kts | 283° |
| 2026-05-07 15:30 | 35.53957 | -91.73017 | 28573 ft | 353 kts | 283° |
| 2026-05-07 15:30 | 35.54806 | -91.75835 | 28311 ft | 352 kts | 283° |
| 2026-05-07 15:30 | 35.55643 | -91.78619 | 28050 ft | 352 kts | 283° |
| 2026-05-07 15:30 | 35.56487 | -91.81428 | 27806 ft | 351 kts | 283° |
| 2026-05-07 15:31 | 35.57324 | -91.84220 | 27560 ft | 351 kts | 283° |
| 2026-05-07 15:31 | 35.58172 | -91.87048 | 27307 ft | 350 kts | 283° |
| 2026-05-07 15:31 | 35.59010 | -91.89838 | 27058 ft | 350 kts | 283° |
| 2026-05-07 15:31 | 35.59854 | -91.92651 | 26821 ft | 353 kts | 284° |
| 2026-05-07 15:32 | 35.60702 | -91.95486 | 26572 ft | 354 kts | 284° |
| 2026-05-07 15:32 | 35.61554 | -91.98324 | 26320 ft | 352 kts | 284° |
| 2026-05-07 15:32 | 35.62397 | -92.01129 | 26094 ft | 354 kts | 284° |
| 2026-05-07 15:32 | 35.63248 | -92.03965 | 25860 ft | 353 kts | 285° |
| 2026-05-07 15:33 | 35.64096 | -92.06792 | 25621 ft | 353 kts | 285° |
| 2026-05-07 15:33 | 35.64945 | -92.09628 | 25387 ft | 354 kts | 285° |
| 2026-05-07 15:33 | 35.65792 | -92.12464 | 25156 ft | 354 kts | 285° |
| 2026-05-07 15:33 | 35.66645 | -92.15316 | 24919 ft | 354 kts | 285° |
| 2026-05-07 15:34 | 35.67495 | -92.18157 | 24688 ft | 355 kts | 286° |
| 2026-05-07 15:34 | 35.68348 | -92.21001 | 24460 ft | 354 kts | 286° |
| 2026-05-07 15:34 | 35.69205 | -92.23866 | 24231 ft | 355 kts | 286° |
| 2026-05-07 15:34 | 35.70051 | -92.26698 | 24004 ft | 355 kts | 286° |
| 2026-05-07 15:35 | 35.70892 | -92.29508 | 23784 ft | 355 kts | 287° |
| 2026-05-07 15:35 | 35.71754 | -92.32406 | 23521 ft | 362 kts | 287° |
| 2026-05-07 15:35 | 35.72620 | -92.35308 | 23246 ft | 359 kts | 287° |
| 2026-05-07 15:35 | 35.73474 | -92.38172 | 23014 ft | 362 kts | 288° |
| 2026-05-07 15:36 | 35.74351 | -92.41118 | 22746 ft | 367 kts | 288° |
| 2026-05-07 15:36 | 35.75228 | -92.44059 | 22492 ft | 363 kts | 288° |
| 2026-05-07 15:36 | 35.76100 | -92.46978 | 22143 ft | 364 kts | 288° |
| 2026-05-07 15:36 | 35.76953 | -92.49850 | 21652 ft | 350 kts | 288° |
| 2026-05-07 15:37 | 35.77756 | -92.52577 | 21200 ft | 337 kts | 288° |
| 2026-05-07 15:37 | 35.78549 | -92.55287 | 20754 ft | 326 kts | 288° |
| 2026-05-07 15:37 | 35.79296 | -92.57851 | 20306 ft | 323 kts | 288° |
| 2026-05-07 15:37 | 35.80063 | -92.60485 | 19826 ft | 327 kts | 288° |
| 2026-05-07 15:38 | 35.80831 | -92.63112 | 19353 ft | 327 kts | 289° |
| 2026-05-07 15:38 | 35.81604 | -92.65738 | 18886 ft | 324 kts | 289° |
| 2026-05-07 15:38 | 35.82373 | -92.68354 | 18415 ft | 322 kts | 289° |
| 2026-05-07 15:38 | 35.83136 | -92.70951 | 17893 ft | 322 kts | 289° |
| 2026-05-07 15:39 | 35.83900 | -92.73546 | 17354 ft | 319 kts | 289° |
| 2026-05-07 15:39 | 35.84639 | -92.76053 | 16851 ft | 315 kts | 289° |
| 2026-05-07 15:39 | 35.85385 | -92.78588 | 16335 ft | 311 kts | 288° |
| 2026-05-07 15:39 | 35.86117 | -92.81078 | 15842 ft | 307 kts | 288° |
| 2026-05-07 15:40 | 35.86838 | -92.83536 | 15351 ft | 304 kts | 288° |
| 2026-05-07 15:40 | 35.87553 | -92.85990 | 14863 ft | 302 kts | 288° |
| 2026-05-07 15:40 | 35.88260 | -92.88423 | 14390 ft | 301 kts | 288° |
| 2026-05-07 15:40 | 35.88971 | -92.90843 | 13891 ft | 297 kts | 288° |
| 2026-05-07 15:41 | 35.89672 | -92.93229 | 13377 ft | 295 kts | 288° |
| 2026-05-07 15:41 | 35.90366 | -92.95592 | 12846 ft | 294 kts | 288° |
| 2026-05-07 15:41 | 35.91062 | -92.97965 | 12329 ft | 294 kts | 288° |
| 2026-05-07 15:41 | 35.91750 | -93.00304 | 11817 ft | 293 kts | 288° |
| 2026-05-07 15:42 | 35.92444 | -93.02661 | 11456 ft | 291 kts | 288° |
| 2026-05-07 15:42 | 35.93136 | -93.05002 | 11156 ft | 285 kts | 289° |
| 2026-05-07 15:42 | 35.93808 | -93.07262 | 10853 ft | 275 kts | 289° |
| 2026-05-07 15:42 | 35.94238 | -93.08709 | 10646 ft | 269 kts | 289° |
| 2026-05-07 15:43 | 35.94871 | -93.10857 | 10356 ft | 265 kts | 289° |
| 2026-05-07 15:43 | 35.95499 | -93.12994 | 10080 ft | 269 kts | 289° |
| 2026-05-07 15:43 | 35.96354 | -93.15889 | 9693 ft | 271 kts | 289° |
| 2026-05-07 15:43 | 35.96785 | -93.17362 | 9453 ft | 272 kts | 289° |
| 2026-05-07 15:44 | 35.97635 | -93.20240 | 9061 ft | 269 kts | 290° |
| 2026-05-07 15:44 | 35.98284 | -93.22419 | 8747 ft | 269 kts | 290° |
| 2026-05-07 15:44 | 35.98718 | -93.23882 | 8514 ft | 270 kts | 290° |
| 2026-05-07 15:44 | 35.99571 | -93.26776 | 8122 ft | 272 kts | 290° |
| 2026-05-07 15:45 | 36.00001 | -93.28235 | 7915 ft | 272 kts | 290° |
| 2026-05-07 15:45 | 36.00646 | -93.30429 | 7665 ft | 269 kts | 290° |
| 2026-05-07 15:45 | 36.01285 | -93.32600 | 7500 ft | 272 kts | 290° |
| 2026-05-07 15:45 | 36.02155 | -93.35526 | 7245 ft | 274 kts | 290° |
| 2026-05-07 15:46 | 36.03450 | -93.39914 | 6924 ft | 272 kts | 290° |
| 2026-05-07 15:46 | 36.03878 | -93.41380 | 6816 ft | 273 kts | 290° |
| 2026-05-07 15:46 | 36.04527 | -93.43581 | 6640 ft | 274 kts | 290° |
| 2026-05-07 15:47 | 36.05181 | -93.45787 | 6451 ft | 273 kts | 290° |
| 2026-05-07 15:47 | 36.05834 | -93.47990 | 6266 ft | 274 kts | 290° |
| 2026-05-07 15:47 | 36.06485 | -93.50196 | 6089 ft | 273 kts | 290° |
| 2026-05-07 15:47 | 36.07132 | -93.52401 | 5923 ft | 273 kts | 290° |
| 2026-05-07 15:48 | 36.07778 | -93.54607 | 5749 ft | 273 kts | 290° |
| 2026-05-07 15:48 | 36.08423 | -93.56812 | 5570 ft | 273 kts | 290° |
| 2026-05-07 15:48 | 36.09074 | -93.59024 | 5381 ft | 273 kts | 290° |
| 2026-05-07 15:48 | 36.09727 | -93.61239 | 5196 ft | 274 kts | 290° |
| 2026-05-07 15:49 | 36.10379 | -93.63449 | 5015 ft | 274 kts | 290° |
| 2026-05-07 15:49 | 36.11017 | -93.65630 | 4846 ft | 273 kts | 290° |
| 2026-05-07 15:49 | 36.11658 | -93.67824 | 4671 ft | 271 kts | 290° |
| 2026-05-07 15:49 | 36.12302 | -93.70022 | 4498 ft | 271 kts | 290° |
| 2026-05-07 15:50 | 36.12946 | -93.72220 | 4318 ft | 271 kts | 290° |
| 2026-05-07 15:50 | 36.13582 | -93.74380 | 4128 ft | 265 kts | 290° |
| 2026-05-07 15:50 | 36.14207 | -93.76507 | 4024 ft | 256 kts | 290° |
| 2026-05-07 15:50 | 36.14794 | -93.78526 | 4589 ft | 240 kts | 289° |
| 2026-05-07 15:51 | 36.15322 | -93.80343 | 6320 ft | 210 kts | 290° |
| 2026-05-07 15:51 | 36.15823 | -93.82030 | 7310 ft | 213 kts | 290° |
| 2026-05-07 15:51 | 36.16367 | -93.83851 | 7406 ft | 251 kts | 290° |
| 2026-05-07 15:51 | 36.16977 | -93.85931 | 7138 ft | 262 kts | 289° |
| 2026-05-07 15:52 | 36.17597 | -93.88069 | 6850 ft | 264 kts | 289° |
| 2026-05-07 15:52 | 36.18005 | -93.90267 | 6577 ft | 264 kts | 270° |
| 2026-05-07 15:52 | 36.17639 | -93.92483 | 6307 ft | 264 kts | 253° |
| 2026-05-07 15:52 | 36.17112 | -93.94504 | 6047 ft | 253 kts | 253° |
| 2026-05-07 15:53 | 36.16599 | -93.96535 | 5753 ft | 239 kts | 253° |
| 2026-05-07 15:53 | 36.16113 | -93.98484 | 5471 ft | 239 kts | 254° |
| 2026-05-07 15:53 | 36.15633 | -94.00399 | 5201 ft | 236 kts | 253° |
| 2026-05-07 15:53 | 36.15149 | -94.02338 | 4932 ft | 237 kts | 253° |
| 2026-05-07 15:54 | 36.14662 | -94.04279 | 4649 ft | 236 kts | 252° |
| 2026-05-07 15:54 | 36.14068 | -94.06196 | 4357 ft | 245 kts | 249° |
| 2026-05-07 15:54 | 36.13460 | -94.08088 | 4080 ft | 229 kts | 249° |
| 2026-05-07 15:54 | 36.12872 | -94.09931 | 3818 ft | 231 kts | 250° |
| 2026-05-07 15:55 | 36.12304 | -94.11809 | 3533 ft | 232 kts | 253° |
| 2026-05-07 15:55 | 36.11862 | -94.13686 | 3260 ft | 225 kts | 255° |
| 2026-05-07 15:55 | 36.11461 | -94.15417 | 3072 ft | 199 kts | 256° |
| 2026-05-07 15:55 | 36.11159 | -94.17038 | 2876 ft | 183 kts | 257° |
| 2026-05-07 15:56 | 36.10893 | -94.18524 | 2891 ft | 180 kts | 263° |
| 2026-05-07 15:56 | 36.10833 | -94.20074 | 3150 ft | 188 kts | 267° |
| 2026-05-07 15:56 | 36.10864 | -94.21677 | 3159 ft | 186 kts | 286° |
| 2026-05-07 15:56 | 36.11681 | -94.22869 | 2917 ft | 182 kts | 328° |
| 2026-05-07 15:57 | 36.12772 | -94.23628 | 3075 ft | 185 kts | 337° |
| 2026-05-07 15:57 | 36.14017 | -94.24124 | 3004 ft | 188 kts | 339° |
| 2026-05-07 15:57 | 36.15187 | -94.24730 | 2974 ft | 184 kts | 336° |
| 2026-05-07 15:57 | 36.16385 | -94.25301 | 2984 ft | 184 kts | 340° |
| 2026-05-07 15:58 | 36.17549 | -94.25807 | 2963 ft | 173 kts | 339° |
| 2026-05-07 15:58 | 36.18691 | -94.26335 | 2996 ft | 173 kts | 338° |
| 2026-05-07 15:58 | 36.19836 | -94.26868 | 2902 ft | 178 kts | 338° |
| 2026-05-07 15:58 | 36.20925 | -94.27360 | 2626 ft | 156 kts | 339° |
| 2026-05-07 15:59 | 36.21932 | -94.27820 | 2431 ft | 156 kts | 338° |
| 2026-05-07 15:59 | 36.22955 | -94.28287 | 2198 ft | 156 kts | 338° |
| 2026-05-07 15:59 | 36.23977 | -94.28753 | 1974 ft | 157 kts | 339° |
| 2026-05-07 15:59 | 36.24984 | -94.29219 | 1784 ft | 156 kts | 339° |
| 2026-05-07 16:00 | 36.26005 | -94.29692 | 1541 ft | 156 kts | 340° |
| 2026-05-07 16:00 | 36.27033 | -94.30166 | 1342 ft | 157 kts | 340° |
| 2026-05-07 16:00 | 36.27983 | -94.30587 | 1275 ft | 129 kts | 342° |
| 2026-05-07 16:00 | 36.28620 | -94.30880 | 1276 ft | 56 kts | 341° |
| 2026-05-07 16:01 | 36.28830 | -94.30975 | 1275 ft | 23 kts | 340° |
| 2026-05-07 16:01 | 36.28937 | -94.30986 | 1271 ft | 15 kts | 46° |
| 2026-05-07 16:01 | 36.28977 | -94.30881 | 1271 ft | 4 kts | 71° |
| 2026-05-07 16:01 | 36.28977 | -94.30839 | 1272 ft | 8 kts | 116° |
| 2026-05-07 16:02 | 36.28937 | -94.30800 | 1275 ft | 4 kts | 157° |
| 2026-05-07 16:02 | 36.28802 | -94.30743 | 1274 ft | 33 kts | 159° |
| 2026-05-07 16:02 | 36.28591 | -94.30648 | 1278 ft | 32 kts | 161° |
| 2026-05-07 16:02 | 36.28376 | -94.30548 | 1277 ft | 34 kts | 157° |
| 2026-05-07 16:03 | 36.28221 | -94.30481 | 1276 ft | 20 kts | 161° |
| 2026-05-07 16:03 | 36.28091 | -94.30421 | 1277 ft | 20 kts | 160° |
| 2026-05-07 16:03 | 36.27956 | -94.30359 | 1278 ft | 21 kts | 160° |
| 2026-05-07 16:03 | 36.27812 | -94.30294 | 1279 ft | 22 kts | 160° |
| 2026-05-07 16:04 | 36.27677 | -94.30232 | 1280 ft | 16 kts | 159° |
| 2026-05-07 16:04 | 36.27595 | -94.30172 | 1278 ft | 13 kts | 113° |
| 2026-05-07 16:04 | 36.27617 | -94.30053 | 1277 ft | 15 kts | 70° |
| 2026-05-07 16:04 | 36.27653 | -94.29927 | 1277 ft | 15 kts | 70° |
| 2026-05-07 16:05 | 36.27656 | -94.29882 | 1277 ft | 6 kts | 139° |
| 2026-05-07 16:05 | 36.27623 | -94.29888 | 1277 ft | 5 kts | 213° |
| 2026-05-07 16:05 | 36.27613 | -94.29897 | 1277 ft | 0 kts | 214° |